createdAt,value
2023-05-20T00:04:42.115Z,102632.28
2023-05-20T00:09:46.502Z,102628.81
2023-05-20T00:14:49.346Z,102626.25
2023-05-20T00:19:52.201Z,102629.75
2023-05-20T00:24:56.323Z,102635.09
2023-05-20T00:29:59.157Z,102622.84
2023-05-20T00:35:05.124Z,102633.34
2023-05-20T00:40:10.258Z,102628.09
2023-05-20T00:45:13.140Z,102627.22
2023-05-20T00:50:16.120Z,102629.84
2023-05-20T00:55:20.499Z,102626.38
2023-05-20T01:00:23.406Z,102614.19
2023-05-20T01:05:26.296Z,102607.19
2023-05-20T01:10:31.606Z,102605.47
2023-05-20T01:15:34.878Z,102616.84
2023-05-20T01:20:39.397Z,102603.75
2023-05-20T01:25:43.860Z,102601.97
2023-05-20T01:30:55.515Z,102598.50
2023-05-20T01:35:58.879Z,102602.03
2023-05-20T01:41:04.520Z,102596.78
2023-05-20T01:46:09.203Z,102592.44
2023-05-20T01:51:12.290Z,102593.34
2023-05-20T01:56:16.619Z,102591.63
2023-05-20T02:01:19.666Z,102586.41
2023-05-20T02:06:22.502Z,102582.03
2023-05-20T02:11:26.931Z,102583.78
2023-05-20T02:16:30.733Z,102585.53
2023-05-20T02:21:35.373Z,102588.19
2023-05-20T02:26:39.529Z,102581.22
2023-05-20T02:31:44.547Z,102584.72
2023-05-20T02:36:47.464Z,102582.06
2023-05-20T02:41:51.818Z,102589.94
2023-05-20T02:46:54.772Z,102580.34
2023-05-20T02:51:57.735Z,102580.34
2023-05-20T02:57:02.291Z,102583.84
2023-05-20T03:02:05.602Z,102588.22
2023-05-20T03:07:09.171Z,102583.88
2023-05-20T03:12:13.461Z,102582.97
2023-05-20T03:17:16.359Z,102576.03
2023-05-20T03:22:19.425Z,102569.03
2023-05-20T03:27:26.581Z,102581.22
2023-05-20T03:32:30.198Z,102587.34
2023-05-20T03:37:33.226Z,102576.88
2023-05-20T03:42:37.898Z,102578.66
2023-05-20T03:47:41.371Z,102581.22
2023-05-20T03:52:45.052Z,102582.13
2023-05-20T03:57:50.888Z,102572.53
2023-05-20T04:02:55.933Z,102572.53
2023-05-20T04:07:59.378Z,102572.50
2023-05-20T04:13:04.346Z,102578.66
2023-05-20T04:18:07.643Z,102578.66
2023-05-20T04:23:10.960Z,102578.63
2023-05-20T04:28:16.477Z,102575.16
2023-05-20T04:33:19.864Z,102565.53
2023-05-20T04:38:23.362Z,102574.28
2023-05-20T04:43:30.197Z,102574.25
2023-05-20T04:48:34.637Z,102576.00
2023-05-20T04:53:38.137Z,102573.38
2023-05-20T04:58:42.641Z,102581.19
2023-05-20T05:03:45.742Z,102575.91
2023-05-20T05:08:49.819Z,102563.66
2023-05-20T05:13:54.237Z,102563.63
2023-05-20T05:19:00.674Z,102554.75
2023-05-20T05:24:07.323Z,102555.41
2023-05-20T05:29:12.696Z,102550.03
2023-05-20T05:34:15.756Z,102544.50
2023-05-20T05:39:18.722Z,102559.25
2023-05-20T05:44:23.139Z,102553.16
2023-05-20T05:49:26.196Z,102561.00
2023-05-20T05:54:29.266Z,102556.56
2023-05-20T05:59:34.232Z,102549.47
2023-05-20T06:04:37.728Z,102550.06
2023-05-20T06:09:41.550Z,102540.78
2023-05-20T06:14:45.821Z,102546.78
2023-05-20T06:19:48.764Z,102541.28
2023-05-20T06:24:53.031Z,102538.59
2023-05-20T06:29:57.475Z,102542.41
2023-05-20T06:35:00.860Z,102531.47
2023-05-20T06:40:04.081Z,102527.81
2023-05-20T06:45:09.609Z,102516.81
2023-05-20T06:50:18.041Z,102514.88
2023-05-20T06:55:21.244Z,102517.31
2023-05-20T07:00:25.850Z,102509.78
2023-05-20T07:05:30.127Z,102506.97
2023-05-20T07:10:33.554Z,102492.78
2023-05-20T07:15:38.085Z,102494.25
2023-05-20T07:20:41.296Z,102505.88
2023-05-20T07:25:51.668Z,102489.50
2023-05-20T07:30:57.433Z,102483.19
2023-05-20T07:36:03.593Z,102477.03
2023-05-20T07:41:07.463Z,102475.09
2023-05-20T07:46:12.284Z,102471.47
2023-05-20T07:51:16.352Z,102479.34
2023-05-20T07:56:19.418Z,102482.44
2023-05-20T08:01:24.062Z,102484.66
2023-05-20T08:06:29.627Z,102491.41
2023-05-20T08:11:33.515Z,102473.06
2023-05-20T08:16:38.643Z,102465.81
2023-05-20T08:21:41.800Z,102470.97
2023-05-20T08:26:45.128Z,102465.91
2023-05-20T08:31:49.454Z,102462.28
2023-05-20T08:36:53.766Z,102455.16
2023-05-20T08:41:56.676Z,102450.97
2023-05-20T08:47:04.020Z,102447.03
2023-05-20T08:52:09.427Z,102441.47
2023-05-20T08:57:14.032Z,102432.31
2023-05-20T09:02:19.107Z,102422.63
2023-05-20T09:07:28.934Z,102425.41
2023-05-20T09:12:33.024Z,102430.13
2023-05-20T09:17:38.062Z,102426.44
2023-05-20T09:22:41.342Z,102420.41
2023-05-20T09:27:44.498Z,102413.53
2023-05-20T09:32:54.276Z,102421.31
2023-05-20T09:38:00.132Z,102415.56
2023-05-20T09:43:04.990Z,102410.78
2023-05-20T09:48:11.023Z,102407.81
2023-05-20T09:53:14.815Z,102406.03
2023-05-20T09:58:18.927Z,102402.25
2023-05-20T10:03:25.517Z,102396.09
2023-05-20T10:08:47.402Z,102387.81
2023-05-20T10:14:00.521Z,102386.31
2023-05-20T10:19:15.719Z,102384.88
2023-05-20T10:24:18.758Z,102368.03
2023-05-20T10:29:22.739Z,102371.41
2023-05-20T10:34:27.041Z,102368.97
2023-05-20T10:39:30.972Z,102356.63
2023-05-20T10:44:42.495Z,102344.19
2023-05-20T10:49:47.639Z,102346.84
2023-05-20T10:54:57.133Z,102327.25
2023-05-20T11:00:01.244Z,102330.00
2023-05-20T11:05:06.907Z,102333.88
2023-05-20T11:10:11.028Z,102321.28
2023-05-20T11:15:14.091Z,102313.28
2023-05-20T11:20:18.541Z,102311.56
2023-05-20T11:25:23.317Z,102306.88
2023-05-20T11:30:26.715Z,102302.38
2023-05-20T11:35:33.297Z,102294.88
2023-05-20T11:40:49.697Z,102307.25
2023-05-20T11:45:55.480Z,102291.72
2023-05-20T11:51:01.887Z,102292.84
2023-05-20T11:56:05.691Z,102303.00
2023-05-20T12:01:20.864Z,102278.97
2023-05-20T12:06:26.803Z,102284.47
2023-05-20T12:11:29.645Z,102279.31
2023-05-20T12:16:33.458Z,102263.66
2023-05-20T12:21:37.762Z,102267.00
2023-05-20T12:26:41.252Z,102252.25
2023-05-20T12:31:44.477Z,102238.84
2023-05-20T12:36:48.748Z,102237.41
2023-05-20T12:41:51.562Z,102246.22
2023-05-20T12:46:55.983Z,102244.81
2023-05-20T12:52:03.424Z,102236.09
2023-05-20T12:57:08.640Z,102234.13
2023-05-20T13:02:11.526Z,102236.69
2023-05-20T13:07:15.932Z,102228.19
2023-05-20T13:12:18.848Z,102228.25
2023-05-20T13:17:21.843Z,102215.16
2023-05-20T13:22:26.190Z,102222.72
2023-05-20T13:27:29.169Z,102218.38
2023-05-20T13:32:32.077Z,102210.69
2023-05-20T13:37:36.394Z,102216.72
2023-05-20T13:42:39.360Z,102207.63
2023-05-20T13:47:42.231Z,102210.09
2023-05-20T13:52:46.528Z,102205.88
2023-05-20T13:57:49.372Z,102202.94
2023-05-20T14:02:52.616Z,102191.91
2023-05-20T14:07:57.009Z,102188.47
2023-05-20T14:13:02.044Z,102181.34
2023-05-20T14:18:05.478Z,102176.78
2023-05-20T14:23:09.891Z,102179.81
2023-05-20T14:28:12.797Z,102169.34
2023-05-20T14:33:15.699Z,102174.41
2023-05-20T14:38:21.436Z,102161.66
2023-05-20T14:43:24.373Z,102156.50
2023-05-20T14:48:27.234Z,102150.56
2023-05-20T14:53:31.456Z,102149.28
2023-05-20T14:58:34.319Z,102130.53
2023-05-20T15:03:37.265Z,102146.66
2023-05-20T15:08:41.856Z,102146.41
2023-05-20T15:13:46.469Z,102135.72
2023-05-20T15:18:49.431Z,102139.06
2023-05-20T15:23:53.704Z,102132.13
2023-05-20T15:28:56.679Z,102128.88
2023-05-20T15:33:59.643Z,102123.28
2023-05-20T15:39:04.157Z,102126.03
2023-05-20T15:44:07.080Z,102121.09
2023-05-20T15:49:09.993Z,102117.19
2023-05-20T15:54:14.454Z,102112.06
2023-05-20T15:59:17.373Z,102107.44
2023-05-20T16:04:20.712Z,102109.72
2023-05-20T16:09:25.260Z,102089.16
2023-05-20T16:14:28.182Z,102084.94
2023-05-20T16:19:31.244Z,102091.50
2023-05-20T16:24:35.541Z,102094.41
2023-05-20T16:29:39.888Z,102086.28
2023-05-20T16:34:42.768Z,102090.94
2023-05-20T16:39:47.038Z,102093.50
2023-05-20T16:44:51.660Z,102081.75
2023-05-20T16:49:54.541Z,102085.59
2023-05-20T16:55:02.287Z,102083.53
2023-05-20T17:00:09.435Z,102083.44
2023-05-20T17:05:12.825Z,102106.69
2023-05-20T17:10:18.322Z,102094.31
2023-05-20T17:15:23.658Z,102093.97
2023-05-20T17:20:26.978Z,102091.13
2023-05-20T17:25:31.238Z,102080.75
2023-05-20T17:30:34.302Z,102075.75
2023-05-20T17:35:37.566Z,102087.50
2023-05-20T17:40:41.848Z,102087.38
2023-05-20T17:45:44.720Z,102092.78
2023-05-20T17:50:47.727Z,102104.44
2023-05-20T17:55:51.916Z,102104.91
2023-05-20T18:00:54.934Z,102103.91
2023-05-20T18:05:57.943Z,102098.97
2023-05-20T18:11:02.204Z,102108.41
2023-05-20T18:16:05.775Z,102116.63
2023-05-20T18:21:08.897Z,102117.56
2023-05-20T18:26:13.097Z,102119.72
2023-05-20T18:31:16.066Z,102113.75
2023-05-20T18:36:18.936Z,102112.78
2023-05-20T18:41:29.421Z,102118.78
2023-05-20T18:46:38.681Z,102122.16
2023-05-20T18:51:41.996Z,102128.41
2023-05-20T18:56:48.415Z,102128.50
2023-05-20T19:01:51.328Z,102130.47
2023-05-20T19:06:54.266Z,102136.22
2023-05-20T19:11:59.199Z,102137.63
2023-05-20T19:17:02.328Z,102138.00
2023-05-20T19:22:06.425Z,102130.47
2023-05-20T19:27:10.756Z,102131.75
2023-05-20T19:32:13.654Z,102131.41
2023-05-20T19:37:16.455Z,102137.97
2023-05-20T19:42:20.570Z,102123.38
2023-05-20T19:47:23.514Z,102123.88
2023-05-20T19:52:26.709Z,102112.00
2023-05-20T19:57:30.988Z,102116.03
2023-05-20T20:02:33.954Z,102127.94
2023-05-20T20:07:36.865Z,102139.69
2023-05-20T20:12:41.078Z,102141.72
2023-05-20T20:17:45.609Z,102132.41
2023-05-20T20:22:48.717Z,102134.34
2023-05-20T20:27:52.938Z,102131.94
2023-05-20T20:32:55.877Z,102133.91
2023-05-20T20:37:58.992Z,102130.59
2023-05-20T20:43:04.858Z,102130.88
2023-05-20T20:48:08.177Z,102126.72
2023-05-20T20:53:12.751Z,102128.66
2023-05-20T20:58:17.295Z,102121.00
2023-05-20T21:03:23.789Z,102134.38
2023-05-20T21:08:27.816Z,102131.13
2023-05-20T21:13:32.347Z,102132.94
2023-05-20T21:18:35.220Z,102127.84
2023-05-20T21:23:38.300Z,102127.31
2023-05-20T21:28:42.499Z,102121.34
2023-05-20T21:33:45.436Z,102128.50
2023-05-20T21:38:48.298Z,102122.50
2023-05-20T21:43:52.554Z,102118.25
2023-05-20T21:48:55.524Z,102117.59
2023-05-20T21:53:58.514Z,102118.59
2023-05-20T21:59:02.765Z,102117.97
2023-05-20T22:04:06.999Z,102115.38
2023-05-20T22:09:10.103Z,102103.19
2023-05-20T22:14:16.063Z,102098.97
2023-05-20T22:19:19.263Z,102090.31
2023-05-20T22:24:22.423Z,102086.94
2023-05-20T22:29:27.407Z,102089.72
2023-05-20T22:34:30.314Z,102074.88
2023-05-20T22:39:33.233Z,102074.09
2023-05-20T22:44:37.443Z,102070.69
2023-05-20T22:49:40.492Z,102063.69
2023-05-20T22:54:43.312Z,102061.97
2023-05-20T22:59:47.694Z,102057.69
2023-05-20T23:04:50.639Z,102048.88
2023-05-20T23:09:53.488Z,102052.41
2023-05-20T23:14:57.697Z,102045.50
2023-05-20T23:20:00.632Z,102055.88
2023-05-20T23:25:03.673Z,102048.66
2023-05-20T23:30:09.570Z,102048.53
2023-05-20T23:35:13.300Z,102054.47
2023-05-20T23:40:16.232Z,102036.75
2023-05-20T23:45:20.474Z,102040.94
2023-05-20T23:50:23.412Z,102035.53
2023-05-20T23:55:28.244Z,102030.19
